Pays
Station

 

Conditions  météo  pour  Sohar Majis  -  Oman    Oman

  
34 °C
    
 
 

METAR pour Sohar Majis :

OOSH 251250Z AUTO 31005KT //// ////// 34/17 Q1006

 

Voici le bulletin pour Sohar Majis - Oman.
 
Le bulletin a été fait il y a une heure et 4 minutes, à 12:50 UTC .
Le vent soufflait à la vitesse de 2.6 mètres par seconde de Nord-ouest (310°).
 
La température était de 34 °C, avec un point de rosée à 17 °C.
La température ressentie était de 34 °C.
 
La pression atmosphérique était de 1006 hPa.
L'humidité relative était de 36.4%.
 

 
 
 

Pays :   A   B   C   D   E   F   G   H   I   J   K   L   M   N   O   P   Q   R   S   T   U   V   W   Y   Z

 

Partenaires :  Info Météo avec Met'info
Météo Marine avec MeteoMarine.net
Infos Site  |  Infos Légales  |  Crédits  |  Confidentialité
Contactez-nous  |  Ajouter aux favoris
© 2013-2020 METAR - Tous droits réservés